• Join FlightAware (Why Join?)
  • Login
  • US Flag 
03:35AM EST


 

Airport Tracker/Info


-or-


 

Live Flight TrackerFlight Track Log ✈ SWA2855 ✈ 25-Apr-2013 ✈ KBWI - KCMH

Flight Track Log - Related Links

Times and Time Zones

All times are in EDT time to prevent confusion due to time zone crossing. See the SWA2855 flight status page for this flight to view local times or setup timezone preferences in your user account.

Time Position Orientation Groundspeed Altitude Reporting Facility
EDT Latitude Longitude Course Direction KTS MPH feet Rate Location/Type
06:18AM 39.1667 -76.7167 211° Southwest 169 194 2,300  Level Potomac TRACON
06:19AM 39.1833 -76.8000 284° West 224 258 5,900 3,840 Climbing Potomac TRACON
06:20AM 39.2000 -76.8833 284° West 255 293 10,000 4,260 Climbing Potomac TRACON
06:21AM 39.2167 -76.9667 284° West 247 284 14,500 3,840 Climbing Potomac TRACON
06:22AM 39.2167 -77.0500 270° West 255 293 17,000 2,280 Climbing Potomac TRACON
06:24AM 39.1237 -77.2131 211° Southwest  Level FlightAware Approximate
06:24AM 39.1547 -77.2056 243° Southwest 288 331 20,700  Level Washington Center
06:25AM 39.1117 -77.3008 240° Southwest 304 350 22,500 1,200 Climbing Washington Center
06:26AM 39.0933 -77.4183 259° West 319 367 23,100 1,620 Climbing Washington Center
06:27AM 39.0750 -77.5356 259° West 332 382 25,800 2,580 Climbing Washington Center
06:28AM 39.0561 -77.6633 259° West 332 382 28,300 2,100 Climbing Washington Center
06:29AM 39.0375 -77.7669 257° West 332 382 30,000 840 Climbing Washington Center
06:30AM 39.0164 -77.8944 258° West 332 382 30,000  Level Washington Center
06:31AM 38.9975 -78.0089 258° West 332 382 30,000  Level Washington Center
06:32AM 38.9764 -78.1231 257° West 332 382 30,000  Level Washington Center
06:33AM 38.9614 -78.2372 260° West 332 382 30,000  Level Washington Center
06:34AM 38.9650 -78.3547 272° West 332 382 30,000  Level Washington Center
06:35AM 38.9686 -78.4750 272° West 326 375 30,000  Level Washington Center
06:36AM 38.9719 -78.5928 272° West 331 381 30,000  Level Washington Center
06:37AM 38.9772 -78.7131 273° West 331 381 30,000  Level Washington Center
06:38AM 38.9800 -78.8386 272° West 341 392 30,000  Level Washington Center
06:39AM 38.9850 -78.9617 273° West 346 398 30,000  Level Washington Center
06:40AM 38.9878 -79.0875 272° West 346 398 30,000  Level Washington Center
06:41AM 38.9903 -79.2103 272° West 346 398 30,000  Level Washington Center
06:42AM 38.9928 -79.3361 272° West 351 404 30,000  Level Washington Center
06:43AM 38.9950 -79.4617 271° West 351 404 30,000  Level Washington Center
06:44AM 39.0000 -79.5636 274° West 351 404 30,000  Level Washington Center
06:45AM 39.0014 -79.7106 271° West 364 419 30,000  Level Washington Center
06:46AM 39.0011 -79.8361 270° West 369 425 30,000  Level Washington Center
06:48AM 39.0047 -80.1139 271° West 357 411 30,000  Level Indianapolis Center
06:49AM 39.0064 -80.2425 271° West 359 413 30,000  Level Indianapolis Center
06:50AM 39.0092 -80.3694 272° West 357 411 30,000  Level Indianapolis Center
06:51AM 39.0100 -80.4978 271° West 358 412 30,000  Level Indianapolis Center
06:52AM 39.0117 -80.6506 271° West 357 411 30,000  Level Indianapolis Center
06:53AM 39.0136 -80.7781 271° West 356 410 30,000  Level Indianapolis Center
06:54AM 39.0494 -80.8992 291° West 369 425 30,000  Level Indianapolis Center
06:55AM 39.0981 -81.0169 298° West 374 430 30,000 -360 Level Indianapolis Center
06:56AM 39.1461 -81.1331 298° West 372 428 29,300 -900 Descending Indianapolis Center
06:57AM 39.1872 -81.2481 295° West 356 410 28,200 -1,080 Descending Indianapolis Center
06:58AM 39.2286 -81.3589 296° West 345 397 27,200 -1,080 Descending Indianapolis Center
06:59AM 39.2672 -81.4647 295° West 332 382 26,100 -1,020 Descending Indianapolis Center
07:00AM 39.3067 -81.5703 296° West 328 377 25,200 -960 Descending Indianapolis Center
07:01AM 39.3447 -81.6756 295° West 324 373 24,200 -840 Descending Indianapolis Center
07:02AM 39.3842 -81.7808 296° West 325 374 23,500 -1,380 Descending Indianapolis Center
07:03AM 39.4197 -81.8797 295° West 308 354 21,400 -2,100 Descending Indianapolis Center
07:04AM 39.4533 -81.9717 295° West 288 331 19,300 -2,280 Descending Indianapolis Center
07:05AM 39.4794 -82.0275 301° West 379 436 18,000 -2,220 Descending Indianapolis Center
07:05AM 39.4925 -82.0808 288° West 278 320 17,100 -1,920 Descending Indianapolis Center
07:06AM 39.5225 -82.1631 295° West 285 328 15,100 -2,220 Descending Indianapolis Center
07:07AM 39.5353 -82.2061 291° West 334 384 14,300 -1,980 Descending Indianapolis Center
07:07AM 39.5589 -82.2567 301° West 287 330 13,100 -1,980 Descending Indianapolis Center
07:09AM 39.6178 -82.3264 318° Northwest 283 326 10,900 -2,340 Descending Indianapolis Center
07:09AM 39.6433 -82.3525 322° Northwest 340 391 10,200 -1,020 Descending Indianapolis Center
07:10AM 39.6753 -82.3933 315° West 276 318 9,900 -240 Descending Indianapolis Center
07:10AM 39.6914 -82.4197 308° West 299 344 10,000 -1,380 Climbing Indianapolis Center
07:11AM 39.7369 -82.4639 323° Northwest 252 290 8,500 -1,800 Descending Indianapolis Center
07:12AM 39.7914 -82.5278 318° Northwest 260 299 6,800 -1,740 Descending Indianapolis Center
07:12AM 39.8108 -82.5492 320° Northwest 313 360 6,200 -1,800 Descending Indianapolis Center
07:13AM 39.8442 -82.5894 317° Northwest 255 293 5,000 -1,620 Descending Indianapolis Center
07:13AM 39.8650 -82.6147 317° Northwest 317 365 4,400 -1,140 Descending Indianapolis Center
07:14AM 39.8961 -82.6489 320° Northwest 249 287 3,900 -840 Descending Indianapolis Center
07:14AM 39.9219 -82.6753 322° Northwest 245 282 3,500 -720 Descending Indianapolis Center
07:15AM 39.9408 -82.6997 315° West 221 254 3,200 -720 Descending Indianapolis Center
07:15AM 39.9606 -82.7231 318° Northwest 189 217 2,800 -600 Descending Indianapolis Center
07:16AM 39.9775 -82.7439 317° Northwest 192 221 2,600 -300 Descending Indianapolis Center
07:16AM 39.9836 -82.7531 311° West 182 209 2,600 -300 Level Indianapolis Center
07:17AM 39.9892 -82.7806 285° West 136 157 2,300 -540 Descending Indianapolis Center
07:17AM 39.9894 -82.7944 271° West 134 154 2,100 -720 Descending Indianapolis Center
07:18AM 39.9900 -82.8236 271° West 122 140 1,600 -600 Descending Indianapolis Center
07:19AM 39.9925 -82.8689 274° West 116 133 1,100 -540 Descending Indianapolis Center
07:21AM 39.9833 -82.8833 311° West  Level FlightAware Approximate